createdAt,value
2023-05-10T00:01:59.685Z,4.77
2023-05-10T00:04:28.449Z,4.76
2023-05-10T00:06:55.811Z,4.74
2023-05-10T00:09:22.429Z,4.73
2023-05-10T00:11:48.965Z,4.72
2023-05-10T00:14:15.507Z,4.72
2023-05-10T00:16:42.114Z,4.70
2023-05-10T00:19:08.868Z,4.68
2023-05-10T00:21:35.431Z,4.66
2023-05-10T00:24:01.951Z,4.64
2023-05-10T00:26:28.493Z,4.61
2023-05-10T00:28:55.406Z,4.56
2023-05-10T00:31:21.962Z,4.53
2023-05-10T00:33:48.473Z,4.53
2023-05-10T00:36:15.059Z,4.53
2023-05-10T00:38:41.613Z,4.52
2023-05-10T00:41:08.350Z,4.50
2023-05-10T00:43:35.672Z,4.48
2023-05-10T00:46:05.265Z,4.47
2023-05-10T00:48:32.896Z,4.46
2023-05-10T00:50:59.570Z,4.43
2023-05-10T00:53:26.537Z,4.41
2023-05-10T00:55:53.417Z,4.39
2023-05-10T00:58:20.059Z,4.36
2023-05-10T01:00:47.339Z,4.34
2023-05-10T01:03:14.085Z,4.33
2023-05-10T01:05:41.518Z,4.33
2023-05-10T01:08:09.615Z,4.31
2023-05-10T01:10:36.443Z,4.30
2023-05-10T01:13:04.129Z,4.30
2023-05-10T01:15:32.183Z,4.29
2023-05-10T01:17:59.664Z,4.28
2023-05-10T01:20:31.715Z,4.26
2023-05-10T01:23:23.115Z,4.23
2023-05-10T01:26:14.932Z,4.20
2023-05-10T01:29:04.747Z,4.18
2023-05-10T01:31:49.991Z,4.19
2023-05-10T01:34:21.872Z,4.19
2023-05-10T01:36:56.305Z,4.22
2023-05-10T01:39:47.995Z,4.24
2023-05-10T01:42:32.774Z,4.25
2023-05-10T01:45:01.910Z,4.26
2023-05-10T01:47:33.877Z,4.25
2023-05-10T01:50:03.565Z,4.24
2023-05-10T01:52:42.798Z,4.21
2023-05-10T01:55:14.320Z,4.19
2023-05-10T01:57:43.591Z,4.17
2023-05-10T02:00:12.384Z,4.16
2023-05-10T02:02:46.151Z,4.15
2023-05-10T02:05:16.032Z,4.15
2023-05-10T02:07:43.502Z,4.13
2023-05-10T02:10:11.550Z,4.09
2023-05-10T02:12:42.581Z,4.12
2023-05-10T02:15:11.438Z,4.12
2023-05-10T02:17:39.850Z,4.10
2023-05-10T02:20:08.680Z,4.08
2023-05-10T02:22:36.783Z,4.06
2023-05-10T02:25:04.556Z,4.05
2023-05-10T02:27:31.705Z,4.04
2023-05-10T02:29:59.102Z,4.04
2023-05-10T02:32:28.656Z,4.01
2023-05-10T02:34:58.164Z,3.98
2023-05-10T02:37:26.425Z,3.94
2023-05-10T02:39:56.056Z,3.92
2023-05-10T02:42:28.818Z,3.90
2023-05-10T02:45:02.496Z,3.93
2023-05-10T02:47:30.768Z,3.96
2023-05-10T02:49:57.379Z,3.96
2023-05-10T02:52:28.341Z,3.95
2023-05-10T02:55:04.117Z,3.91
2023-05-10T02:57:34.904Z,3.89
2023-05-10T03:00:04.327Z,3.86
2023-05-10T03:02:32.187Z,3.84
2023-05-10T03:04:59.537Z,3.83
2023-05-10T03:07:26.660Z,3.85
2023-05-10T03:09:53.508Z,3.88
2023-05-10T03:12:53.587Z,3.91
2023-05-10T03:15:24.188Z,3.97
2023-05-10T03:18:04.776Z,4.01
2023-05-10T03:20:44.699Z,4.05
2023-05-10T03:23:23.617Z,4.09
2023-05-10T03:25:51.827Z,4.13
2023-05-10T03:28:20.255Z,4.17
2023-05-10T03:30:47.570Z,4.22
2023-05-10T03:33:15.130Z,4.26
2023-05-10T03:35:45.088Z,4.32
2023-05-10T03:38:11.614Z,4.38
2023-05-10T03:40:38.447Z,4.44
2023-05-10T03:43:05.163Z,4.50
2023-05-10T03:45:31.974Z,4.55
2023-05-10T03:48:04.849Z,4.62
2023-05-10T03:50:34.089Z,4.69
2023-05-10T03:53:00.748Z,4.76
2023-05-10T03:55:27.908Z,4.83
2023-05-10T03:57:54.981Z,4.92
2023-05-10T04:00:22.220Z,5.02
2023-05-10T04:02:50.269Z,5.12
2023-05-10T04:05:19.243Z,5.22
2023-05-10T04:07:45.869Z,5.33
2023-05-10T04:10:12.819Z,5.44
2023-05-10T04:12:39.377Z,5.54
2023-05-10T04:15:07.572Z,5.64
2023-05-10T04:17:34.239Z,5.76
2023-05-10T04:20:00.887Z,5.87
2023-05-10T04:22:28.742Z,5.98
2023-05-10T04:24:55.314Z,6.10
2023-05-10T04:27:21.974Z,6.21
2023-05-10T04:29:49.193Z,6.33
2023-05-10T04:32:17.347Z,6.44
2023-05-10T04:34:44.538Z,6.55
2023-05-10T04:37:11.247Z,6.66
2023-05-10T04:39:38.839Z,6.78
2023-05-10T04:42:06.791Z,6.90
2023-05-10T04:44:33.808Z,7.02
2023-05-10T04:47:01.212Z,7.13
2023-05-10T04:49:27.796Z,7.26
2023-05-10T04:51:54.336Z,7.38
2023-05-10T04:54:20.979Z,7.49
2023-05-10T04:56:47.538Z,7.60
2023-05-10T04:59:14.255Z,7.71
2023-05-10T05:01:40.822Z,7.83
2023-05-10T05:04:08.015Z,7.93
2023-05-10T05:06:34.689Z,8.04
2023-05-10T05:09:01.225Z,8.15
2023-05-10T05:11:27.973Z,8.26
2023-05-10T05:13:54.619Z,8.39
2023-05-10T05:16:21.162Z,8.49
2023-05-10T05:18:47.886Z,8.60
2023-05-10T05:21:19.415Z,8.71
2023-05-10T05:23:46.523Z,8.80
2023-05-10T05:26:13.073Z,8.90
2023-05-10T05:28:39.703Z,9.00
2023-05-10T05:31:08.756Z,9.08
2023-05-10T05:33:35.853Z,9.20
2023-05-10T05:36:03.985Z,9.32
2023-05-10T05:38:30.609Z,9.45
2023-05-10T05:40:57.166Z,9.56
2023-05-10T05:43:23.798Z,9.65
2023-05-10T05:45:50.683Z,9.76
2023-05-10T05:48:17.241Z,9.88
2023-05-10T05:50:43.825Z,10.01
2023-05-10T05:53:10.846Z,10.12
2023-05-10T05:55:37.551Z,10.23
2023-05-10T05:58:04.249Z,10.33
2023-05-10T06:00:30.832Z,10.46
2023-05-10T06:02:58.192Z,10.60
2023-05-10T06:05:24.872Z,10.72
2023-05-10T06:07:51.426Z,10.83
2023-05-10T06:10:18.006Z,10.95
2023-05-10T06:12:44.622Z,11.09
2023-05-10T06:15:11.509Z,11.22
2023-05-10T06:17:38.026Z,11.35
2023-05-10T06:20:05.005Z,11.49
2023-05-10T06:22:31.522Z,11.61
2023-05-10T06:24:59.642Z,11.72
2023-05-10T06:27:26.262Z,11.86
2023-05-10T06:30:02.161Z,11.98
2023-05-10T06:32:32.407Z,12.04
2023-05-10T06:34:59.134Z,12.10
2023-05-10T06:37:25.776Z,12.19
2023-05-10T06:39:52.527Z,12.31
2023-05-10T06:42:19.144Z,12.48
2023-05-10T06:44:46.468Z,12.66
2023-05-10T06:47:13.352Z,12.98
2023-05-10T06:49:39.941Z,13.46
2023-05-10T06:52:06.461Z,14.03
2023-05-10T06:54:33.067Z,14.65
2023-05-10T06:57:01.209Z,15.25
2023-05-10T06:59:28.680Z,16.10
2023-05-10T07:01:55.864Z,16.77
2023-05-10T07:04:22.647Z,17.51
2023-05-10T07:06:50.781Z,18.25
2023-05-10T07:09:17.466Z,18.85
2023-05-10T07:11:44.096Z,19.48
2023-05-10T07:14:10.952Z,20.37
2023-05-10T07:16:37.851Z,20.93
2023-05-10T07:19:06.317Z,21.29
2023-05-10T07:21:33.262Z,21.54
2023-05-10T07:24:01.288Z,21.23
2023-05-10T07:26:27.898Z,20.64
2023-05-10T07:28:54.451Z,20.28
2023-05-10T07:31:21.108Z,20.45
2023-05-10T07:33:47.632Z,20.64
2023-05-10T07:36:14.205Z,20.96
2023-05-10T07:38:41.402Z,21.20
2023-05-10T07:41:08.205Z,21.03
2023-05-10T07:43:34.746Z,21.17
2023-05-10T07:46:02.432Z,21.46
2023-05-10T07:49:49.248Z,21.77
2023-05-10T07:52:16.423Z,21.42
2023-05-10T07:54:42.995Z,21.21
2023-05-10T07:57:09.869Z,21.23
2023-05-10T07:59:36.530Z,21.86
2023-05-10T08:02:03.205Z,22.68
2023-05-10T08:04:29.883Z,23.13
2023-05-10T08:06:56.634Z,23.67
2023-05-10T08:09:25.139Z,24.27
2023-05-10T08:11:52.070Z,24.72
2023-05-10T08:14:19.165Z,24.82
2023-05-10T08:16:45.787Z,24.21
2023-05-10T08:19:12.482Z,23.66
2023-05-10T08:21:39.469Z,23.13
2023-05-10T08:24:06.693Z,22.59
2023-05-10T08:26:33.608Z,22.19
2023-05-10T08:29:00.322Z,22.42
2023-05-10T08:31:26.887Z,22.95
2023-05-10T08:33:53.786Z,23.54
2023-05-10T08:36:25.227Z,23.69
2023-05-10T08:38:53.089Z,23.78
2023-05-10T08:41:25.557Z,23.95
2023-05-10T08:43:56.188Z,24.73
2023-05-10T08:46:24.832Z,24.89
2023-05-10T08:48:53.556Z,25.12
2023-05-10T08:51:26.251Z,25.25
2023-05-10T08:53:53.407Z,24.73
2023-05-10T08:56:21.850Z,24.56
2023-05-10T08:58:48.548Z,24.67
2023-05-10T09:01:17.295Z,24.88
2023-05-10T09:03:44.753Z,25.27
2023-05-10T09:06:14.292Z,25.87
2023-05-10T09:08:43.839Z,25.72
2023-05-10T09:11:10.914Z,25.26
2023-05-10T09:13:40.423Z,25.38
2023-05-10T09:16:19.906Z,25.69
2023-05-10T09:18:48.273Z,26.39
2023-05-10T09:21:14.869Z,26.36
2023-05-10T09:23:48.221Z,25.68
2023-05-10T09:26:15.677Z,25.21
2023-05-10T09:28:52.800Z,24.90
2023-05-10T09:31:19.737Z,25.32
2023-05-10T09:33:48.142Z,25.66
2023-05-10T09:36:15.684Z,25.78
2023-05-10T09:38:54.594Z,25.52
2023-05-10T09:41:23.548Z,25.38
2023-05-10T09:43:50.761Z,25.39
2023-05-10T09:46:17.718Z,24.79
2023-05-10T09:48:48.744Z,24.85
2023-05-10T09:51:23.041Z,25.26
2023-05-10T09:53:51.644Z,25.63
2023-05-10T09:56:36.512Z,26.05
2023-05-10T09:59:04.209Z,26.02
2023-05-10T10:01:31.420Z,25.53
2023-05-10T10:03:59.253Z,25.38
2023-05-10T10:06:30.027Z,25.01
2023-05-10T10:08:57.766Z,25.04
2023-05-10T10:11:25.157Z,24.81
2023-05-10T10:13:51.937Z,24.75
2023-05-10T10:16:19.117Z,24.84
2023-05-10T10:18:45.886Z,24.45
2023-05-10T10:21:15.694Z,23.88
2023-05-10T10:23:46.332Z,23.92
2023-05-10T10:26:14.464Z,24.37
2023-05-10T10:28:58.614Z,25.09
2023-05-10T10:31:43.904Z,25.29
2023-05-10T10:34:32.734Z,25.76
2023-05-10T10:37:07.780Z,26.09
2023-05-10T10:39:37.663Z,26.02
2023-05-10T10:42:05.930Z,25.57
2023-05-10T10:44:35.395Z,24.92
2023-05-10T10:47:19.706Z,24.14
2023-05-10T10:50:14.422Z,24.27
2023-05-10T10:52:42.183Z,24.72
2023-05-10T10:55:13.577Z,24.92
2023-05-10T10:58:01.086Z,24.57
2023-05-10T11:00:34.722Z,24.13
2023-05-10T11:03:10.436Z,24.07
2023-05-10T11:05:46.910Z,24.19
2023-05-10T11:08:35.131Z,24.37
2023-05-10T11:11:08.902Z,24.28
2023-05-10T11:13:39.813Z,24.00
2023-05-10T11:16:26.476Z,23.68
2023-05-10T11:19:04.533Z,23.41
2023-05-10T11:21:32.535Z,23.34
2023-05-10T11:24:01.177Z,23.62
2023-05-10T11:26:36.106Z,24.06
2023-05-10T11:29:06.609Z,24.83
2023-05-10T11:31:34.231Z,24.78
2023-05-10T11:34:05.909Z,24.84
2023-05-10T11:36:38.044Z,24.85
2023-05-10T11:39:06.101Z,24.80
2023-05-10T11:41:33.664Z,24.72
2023-05-10T11:44:01.123Z,24.46
2023-05-10T11:46:29.888Z,24.44
2023-05-10T11:49:03.046Z,24.59
2023-05-10T11:51:29.938Z,24.28
2023-05-10T11:53:58.868Z,23.67
2023-05-10T11:56:28.899Z,23.10
2023-05-10T11:58:58.249Z,22.94
2023-05-10T12:01:27.782Z,22.57
2023-05-10T12:03:56.074Z,22.27
2023-05-10T12:06:23.177Z,22.30
2023-05-10T12:08:56.554Z,22.59
2023-05-10T12:11:26.861Z,22.75
2023-05-10T12:13:54.159Z,22.90
2023-05-10T12:16:26.812Z,23.19
2023-05-10T12:18:57.583Z,23.29
2023-05-10T12:21:25.083Z,22.65
2023-05-10T12:23:53.442Z,22.18
2023-05-10T12:26:25.959Z,21.77
2023-05-10T12:28:54.073Z,21.66
2023-05-10T12:31:21.809Z,21.96
2023-05-10T12:33:50.513Z,22.23
2023-05-10T12:36:17.783Z,22.34
2023-05-10T12:38:49.032Z,22.17
2023-05-10T12:41:17.713Z,21.96
2023-05-10T12:43:46.541Z,21.90
2023-05-10T12:46:15.455Z,22.03
2023-05-10T12:48:44.220Z,22.33
2023-05-10T12:51:13.303Z,22.74
2023-05-10T12:53:43.425Z,22.27
2023-05-10T12:56:11.521Z,21.82
2023-05-10T12:58:39.115Z,21.76
2023-05-10T13:01:06.669Z,21.79
2023-05-10T13:03:33.474Z,21.61
2023-05-10T13:06:00.237Z,20.92
2023-05-10T13:08:27.043Z,20.73
2023-05-10T13:10:54.222Z,21.03
2023-05-10T13:13:21.138Z,21.33
2023-05-10T13:15:47.844Z,21.47
2023-05-10T13:18:14.584Z,21.44
2023-05-10T13:20:41.728Z,21.25
2023-05-10T13:23:08.410Z,20.93
2023-05-10T13:25:35.446Z,20.96
2023-05-10T13:28:03.160Z,21.13
2023-05-10T13:30:29.927Z,20.88
2023-05-10T13:32:56.673Z,20.69
2023-05-10T13:35:23.546Z,20.62
2023-05-10T13:37:50.286Z,20.43
2023-05-10T13:40:18.197Z,20.60
2023-05-10T13:42:45.112Z,20.63
2023-05-10T13:45:14.271Z,20.60
2023-05-10T13:47:41.283Z,20.65
2023-05-10T13:50:08.903Z,20.51
2023-05-10T13:52:36.393Z,20.28
2023-05-10T13:55:03.856Z,20.29
2023-05-10T13:57:31.490Z,20.30
2023-05-10T13:59:58.944Z,20.25
2023-05-10T14:02:26.449Z,20.24
2023-05-10T14:04:53.407Z,20.21
2023-05-10T14:07:20.493Z,19.90
2023-05-10T14:09:47.630Z,19.70
2023-05-10T14:12:15.701Z,19.49
2023-05-10T14:14:42.586Z,19.36
2023-05-10T14:17:12.010Z,19.27
2023-05-10T14:19:39.996Z,19.18
2023-05-10T14:22:07.172Z,19.02
2023-05-10T14:24:34.022Z,18.85
2023-05-10T14:27:01.383Z,18.69
2023-05-10T14:29:28.527Z,18.63
2023-05-10T14:31:55.543Z,18.60
2023-05-10T14:34:22.575Z,18.44
2023-05-10T14:36:49.700Z,18.17
2023-05-10T14:39:16.775Z,18.00
2023-05-10T14:41:45.626Z,17.82
2023-05-10T14:44:12.598Z,17.62
2023-05-10T14:46:40.460Z,17.49
2023-05-10T14:49:07.502Z,17.56
2023-05-10T14:51:34.322Z,17.61
2023-05-10T14:54:01.825Z,17.64
2023-05-10T14:56:29.000Z,17.61
2023-05-10T14:58:56.764Z,17.55
2023-05-10T15:01:24.658Z,17.44
2023-05-10T15:03:52.135Z,17.41
2023-05-10T15:06:26.410Z,17.48
2023-05-10T15:08:53.778Z,17.52
2023-05-10T15:11:21.682Z,17.55
2023-05-10T15:13:48.837Z,17.48
2023-05-10T15:16:15.886Z,17.32
2023-05-10T15:18:42.834Z,17.14
2023-05-10T15:21:11.178Z,17.05
2023-05-10T15:23:38.956Z,17.04
2023-05-10T15:26:06.435Z,17.04
2023-05-10T15:28:34.562Z,17.07
2023-05-10T15:31:02.017Z,17.09
2023-05-10T15:33:30.296Z,17.05
2023-05-10T15:35:57.295Z,17.00
2023-05-10T15:38:25.807Z,16.98
2023-05-10T15:40:58.086Z,16.90
2023-05-10T15:43:25.708Z,16.79
2023-05-10T15:45:53.306Z,16.69
2023-05-10T15:48:20.861Z,16.66
2023-05-10T15:50:48.126Z,16.60
2023-05-10T15:53:17.889Z,16.60
2023-05-10T15:55:45.092Z,16.61
2023-05-10T15:58:12.743Z,16.57
2023-05-10T16:00:40.508Z,16.54
2023-05-10T16:03:09.085Z,16.51
2023-05-10T16:05:39.983Z,16.44
2023-05-10T16:08:07.534Z,16.39
2023-05-10T16:10:34.689Z,16.31
2023-05-10T16:13:04.394Z,16.24
2023-05-10T16:15:32.082Z,16.22
2023-05-10T16:18:02.953Z,16.21
2023-05-10T16:20:30.201Z,16.18
2023-05-10T16:22:57.473Z,16.13
2023-05-10T16:25:24.253Z,16.05
2023-05-10T16:27:51.647Z,16.00
2023-05-10T16:30:21.302Z,15.93
2023-05-10T16:32:51.284Z,15.88
2023-05-10T16:35:19.154Z,15.85
2023-05-10T16:37:46.539Z,15.79
2023-05-10T16:40:14.311Z,15.72
2023-05-10T16:42:42.115Z,15.67
2023-05-10T16:45:09.858Z,15.63
2023-05-10T16:47:38.217Z,15.59
2023-05-10T16:50:07.645Z,15.53
2023-05-10T16:52:35.580Z,15.50
2023-05-10T16:55:03.318Z,15.48
2023-05-10T16:57:30.873Z,15.45
2023-05-10T16:59:57.605Z,15.43
2023-05-10T17:02:24.416Z,15.38
2023-05-10T17:04:53.172Z,15.34
2023-05-10T17:07:19.821Z,15.28
2023-05-10T17:09:46.788Z,15.24
2023-05-10T17:12:13.457Z,15.23
2023-05-10T17:14:40.163Z,15.25
2023-05-10T17:17:07.052Z,15.22
2023-05-10T17:19:33.864Z,15.17
2023-05-10T17:22:00.766Z,15.10
2023-05-10T17:24:29.714Z,15.03
2023-05-10T17:26:57.444Z,15.01
2023-05-10T17:29:24.346Z,14.94
2023-05-10T17:31:51.103Z,14.87
2023-05-10T17:34:18.512Z,14.79
2023-05-10T17:36:47.036Z,14.72
2023-05-10T17:39:16.528Z,14.63
2023-05-10T17:41:43.948Z,14.54
2023-05-10T17:44:13.455Z,14.48
2023-05-10T17:46:40.419Z,14.42
2023-05-10T17:49:08.243Z,14.38
2023-05-10T17:51:35.883Z,14.29
2023-05-10T17:54:03.682Z,14.17
2023-05-10T17:56:33.153Z,14.07
2023-05-10T17:59:00.500Z,13.96
2023-05-10T18:01:27.965Z,13.84
2023-05-10T18:03:59.467Z,13.73
2023-05-10T18:06:27.074Z,13.62
2023-05-10T18:08:54.575Z,13.49
2023-05-10T18:11:22.493Z,13.37
2023-05-10T18:13:51.412Z,13.27
2023-05-10T18:16:18.704Z,13.17
2023-05-10T18:18:45.396Z,13.05
2023-05-10T18:21:12.589Z,12.93
2023-05-10T18:23:39.584Z,12.82
2023-05-10T18:26:08.477Z,12.70
2023-05-10T18:28:35.978Z,12.57
2023-05-10T18:31:03.512Z,12.45
2023-05-10T18:33:30.846Z,12.34
2023-05-10T18:35:57.988Z,12.24
2023-05-10T18:38:24.757Z,12.15
2023-05-10T18:40:51.787Z,12.05
2023-05-10T18:43:18.739Z,11.95
2023-05-10T18:45:45.588Z,11.85
2023-05-10T18:48:12.361Z,11.76
2023-05-10T18:50:39.456Z,11.65
2023-05-10T18:53:06.136Z,11.55
2023-05-10T18:55:32.861Z,11.44
2023-05-10T18:57:59.489Z,11.34
2023-05-10T19:00:26.376Z,11.24
2023-05-10T19:02:53.689Z,11.15
2023-05-10T19:05:20.683Z,11.06
2023-05-10T19:07:47.716Z,10.96
2023-05-10T19:10:15.213Z,10.89
2023-05-10T19:12:41.959Z,10.81
2023-05-10T19:15:09.770Z,10.75
2023-05-10T19:17:38.873Z,10.68
2023-05-10T19:20:07.976Z,10.60
2023-05-10T19:22:47.101Z,10.53
2023-05-10T19:25:21.899Z,10.45
2023-05-10T19:27:48.705Z,10.38
2023-05-10T19:30:15.542Z,10.30
2023-05-10T19:32:44.484Z,10.24
2023-05-10T19:35:13.730Z,10.17
2023-05-10T19:37:45.910Z,10.10
2023-05-10T19:40:16.034Z,10.02
2023-05-10T19:42:42.933Z,9.93
2023-05-10T19:45:10.498Z,9.84
2023-05-10T19:47:37.389Z,9.76
2023-05-10T19:50:04.558Z,9.67
2023-05-10T19:52:31.184Z,9.59
2023-05-10T19:54:57.862Z,9.54
2023-05-10T19:57:24.584Z,9.47
2023-05-10T19:59:51.144Z,9.39
2023-05-10T20:02:17.719Z,9.31
2023-05-10T20:04:45.020Z,9.24
2023-05-10T20:07:12.401Z,9.17
2023-05-10T20:09:39.598Z,9.11
2023-05-10T20:12:06.476Z,9.05
2023-05-10T20:14:33.321Z,9.01
2023-05-10T20:17:00.047Z,8.97
2023-05-10T20:19:26.838Z,8.95
2023-05-10T20:21:56.108Z,8.93
2023-05-10T20:24:23.460Z,8.90
2023-05-10T20:26:50.355Z,8.86
2023-05-10T20:29:17.180Z,8.83
2023-05-10T20:31:43.927Z,8.80
2023-05-10T20:34:10.929Z,8.77
2023-05-10T20:36:38.355Z,8.78
2023-05-10T20:39:05.467Z,8.78
2023-05-10T20:41:32.204Z,8.76
2023-05-10T20:44:00.687Z,8.75
2023-05-10T20:46:27.928Z,8.74
2023-05-10T20:48:54.798Z,8.74
2023-05-10T20:51:21.689Z,8.71
2023-05-10T20:53:48.313Z,8.70
2023-05-10T20:56:15.114Z,8.69
2023-05-10T20:58:41.831Z,8.69
2023-05-10T21:01:08.656Z,8.68
2023-05-10T21:03:35.831Z,8.70
2023-05-10T21:06:02.516Z,8.73
2023-05-10T21:08:29.196Z,8.75
2023-05-10T21:10:56.286Z,8.72
2023-05-10T21:13:23.184Z,8.69
2023-05-10T21:15:50.026Z,8.68
2023-05-10T21:18:16.815Z,8.68
2023-05-10T21:20:43.475Z,8.70
2023-05-10T21:23:09.984Z,8.71
2023-05-10T21:25:37.578Z,8.71
2023-05-10T21:28:04.250Z,8.74
2023-05-10T21:30:30.892Z,8.73
2023-05-10T21:32:59.859Z,8.72
2023-05-10T21:35:26.780Z,8.70
2023-05-10T21:37:53.342Z,8.69
2023-05-10T21:40:20.316Z,8.71
2023-05-10T21:42:49.467Z,8.67
2023-05-10T21:45:17.174Z,8.63
2023-05-10T21:47:44.137Z,8.58
2023-05-10T21:50:11.920Z,8.54
2023-05-10T21:52:39.153Z,8.52
2023-05-10T21:55:06.608Z,8.48
2023-05-10T21:57:33.169Z,8.42
2023-05-10T21:59:59.797Z,8.35
2023-05-10T22:02:26.574Z,8.31
2023-05-10T22:04:53.264Z,8.27
2023-05-10T22:07:19.895Z,8.22
2023-05-10T22:09:46.510Z,8.16
2023-05-10T22:12:13.216Z,8.10
2023-05-10T22:14:39.776Z,8.02
2023-05-10T22:17:06.408Z,7.96
2023-05-10T22:19:33.009Z,7.93
2023-05-10T22:21:59.535Z,7.90
2023-05-10T22:24:26.333Z,7.85
2023-05-10T22:26:56.160Z,7.81
2023-05-10T22:29:24.114Z,7.75
2023-05-10T22:31:50.790Z,7.69
2023-05-10T22:34:18.721Z,7.64
2023-05-10T22:36:45.478Z,7.59
2023-05-10T22:39:12.232Z,7.57
2023-05-10T22:41:38.760Z,7.54
2023-05-10T22:44:05.360Z,7.51
2023-05-10T22:46:32.996Z,7.47
2023-05-10T22:48:59.745Z,7.42
2023-05-10T22:51:26.543Z,7.36
2023-05-10T22:53:53.016Z,7.31
2023-05-10T22:56:21.853Z,7.26
2023-05-10T22:58:49.442Z,7.20
2023-05-10T23:01:16.124Z,7.14
2023-05-10T23:03:42.789Z,7.08
2023-05-10T23:06:09.345Z,7.04
2023-05-10T23:08:35.830Z,7.02
2023-05-10T23:11:02.460Z,6.99
2023-05-10T23:13:29.016Z,6.96
2023-05-10T23:15:55.618Z,6.93
2023-05-10T23:18:22.287Z,6.90
2023-05-10T23:20:48.889Z,6.85
2023-05-10T23:23:15.802Z,6.82
2023-05-10T23:25:42.305Z,6.77
2023-05-10T23:28:08.845Z,6.73
2023-05-10T23:30:35.675Z,6.67
2023-05-10T23:33:02.266Z,6.61
2023-05-10T23:35:28.916Z,6.55
2023-05-10T23:37:55.658Z,6.50
2023-05-10T23:40:22.582Z,6.46
2023-05-10T23:42:49.149Z,6.41
2023-05-10T23:45:16.111Z,6.36
2023-05-10T23:47:42.701Z,6.32
2023-05-10T23:50:10.091Z,6.28
2023-05-10T23:52:36.650Z,6.24
2023-05-10T23:55:03.614Z,6.20
2023-05-10T23:57:30.218Z,6.16
2023-05-10T23:59:56.712Z,6.12
